sensor_id;sensor_type;location;lat;lon;timestamp;temperature;humidity
80279;DHT22;70683;52.492;13.416;2023-11-22T00:00:50;3.70;81.30
80279;DHT22;70683;52.492;13.416;2023-11-22T00:03:17;3.80;79.60
80279;DHT22;70683;52.492;13.416;2023-11-22T00:05:45;3.80;80.40
80279;DHT22;70683;52.492;13.416;2023-11-22T00:08:12;3.80;80.20
80279;DHT22;70683;52.492;13.416;2023-11-22T00:10:39;3.80;80.50
80279;DHT22;70683;52.492;13.416;2023-11-22T00:13:05;3.80;81.00
80279;DHT22;70683;52.492;13.416;2023-11-22T00:15:32;3.90;80.70
80279;DHT22;70683;52.492;13.416;2023-11-22T00:17:59;3.90;80.50
80279;DHT22;70683;52.492;13.416;2023-11-22T00:20:27;4.00;80.70
80279;DHT22;70683;52.492;13.416;2023-11-22T00:22:54;3.90;80.30
80279;DHT22;70683;52.492;13.416;2023-11-22T00:25:20;4.00;80.20
80279;DHT22;70683;52.492;13.416;2023-11-22T00:27:47;3.90;78.60
80279;DHT22;70683;52.492;13.416;2023-11-22T00:30:14;3.90;79.20
80279;DHT22;70683;52.492;13.416;2023-11-22T00:32:40;3.90;79.10
80279;DHT22;70683;52.492;13.416;2023-11-22T00:35:08;3.90;79.50
80279;DHT22;70683;52.492;13.416;2023-11-22T00:37:34;3.90;79.70
80279;DHT22;70683;52.492;13.416;2023-11-22T00:40:02;4.00;79.70
80279;DHT22;70683;52.492;13.416;2023-11-22T00:42:32;4.00;79.50
80279;DHT22;70683;52.492;13.416;2023-11-22T00:44:59;3.90;79.00
80279;DHT22;70683;52.492;13.416;2023-11-22T00:47:26;3.70;78.40
80279;DHT22;70683;52.492;13.416;2023-11-22T00:49:52;3.60;79.50
80279;DHT22;70683;52.492;13.416;2023-11-22T00:52:19;3.60;80.30
80279;DHT22;70683;52.492;13.416;2023-11-22T00:54:46;3.70;80.40
80279;DHT22;70683;52.492;13.416;2023-11-22T00:57:12;3.80;79.80
80279;DHT22;70683;52.492;13.416;2023-11-22T00:59:39;3.80;80.20
80279;DHT22;70683;52.492;13.416;2023-11-22T01:02:05;3.70;79.10
80279;DHT22;70683;52.492;13.416;2023-11-22T01:04:34;3.70;79.60
80279;DHT22;70683;52.492;13.416;2023-11-22T01:07:03;3.80;80.20
80279;DHT22;70683;52.492;13.416;2023-11-22T01:09:31;3.70;80.20
80279;DHT22;70683;52.492;13.416;2023-11-22T01:11:58;3.80;79.50
80279;DHT22;70683;52.492;13.416;2023-11-22T01:14:25;3.70;79.20
80279;DHT22;70683;52.492;13.416;2023-11-22T01:16:53;3.70;79.70
80279;DHT22;70683;52.492;13.416;2023-11-22T01:19:20;3.70;79.20
80279;DHT22;70683;52.492;13.416;2023-11-22T01:21:47;3.60;79.40
80279;DHT22;70683;52.492;13.416;2023-11-22T01:24:14;3.60;80.00
80279;DHT22;70683;52.492;13.416;2023-11-22T01:26:41;3.50;80.20
80279;DHT22;70683;52.492;13.416;2023-11-22T01:29:08;3.50;80.70
80279;DHT22;70683;52.492;13.416;2023-11-22T01:31:34;3.50;81.00
80279;DHT22;70683;52.492;13.416;2023-11-22T01:34:01;3.50;80.20
80279;DHT22;70683;52.492;13.416;2023-11-22T01:36:30;3.40;80.30
80279;DHT22;70683;52.492;13.416;2023-11-22T01:38:57;3.30;80.20
80279;DHT22;70683;52.492;13.416;2023-11-22T01:41:24;3.20;80.30
80279;DHT22;70683;52.492;13.416;2023-11-22T01:43:50;3.20;81.10
80279;DHT22;70683;52.492;13.416;2023-11-22T01:46:25;3.20;81.10
80279;DHT22;70683;52.492;13.416;2023-11-22T01:48:53;3.20;81.50
80279;DHT22;70683;52.492;13.416;2023-11-22T01:51:21;3.10;80.70
80279;DHT22;70683;52.492;13.416;2023-11-22T01:53:51;3.10;81.30
80279;DHT22;70683;52.492;13.416;2023-11-22T01:56:21;3.10;81.40
80279;DHT22;70683;52.492;13.416;2023-11-22T01:58:49;3.20;80.30
80279;DHT22;70683;52.492;13.416;2023-11-22T02:01:16;3.10;78.80
80279;DHT22;70683;52.492;13.416;2023-11-22T02:03:45;3.10;78.60
80279;DHT22;70683;52.492;13.416;2023-11-22T02:06:16;3.10;78.20
80279;DHT22;70683;52.492;13.416;2023-11-22T02:08:42;3.00;78.00
80279;DHT22;70683;52.492;13.416;2023-11-22T02:11:10;3.00;77.10
80279;DHT22;70683;52.492;13.416;2023-11-22T02:13:36;3.00;74.80
80279;DHT22;70683;52.492;13.416;2023-11-22T02:16:03;2.90;73.80
80279;DHT22;70683;52.492;13.416;2023-11-22T02:18:30;2.90;72.60
80279;DHT22;70683;52.492;13.416;2023-11-22T02:20:56;2.90;71.80
80279;DHT22;70683;52.492;13.416;2023-11-22T02:23:23;2.80;71.30
80279;DHT22;70683;52.492;13.416;2023-11-22T02:25:50;2.80;72.10
80279;DHT22;70683;52.492;13.416;2023-11-22T02:28:17;2.80;71.30
80279;DHT22;70683;52.492;13.416;2023-11-22T02:30:44;2.70;70.00
80279;DHT22;70683;52.492;13.416;2023-11-22T02:33:10;2.60;70.20
80279;DHT22;70683;52.492;13.416;2023-11-22T02:35:37;2.60;69.40
80279;DHT22;70683;52.492;13.416;2023-11-22T02:38:04;2.60;70.40
80279;DHT22;70683;52.492;13.416;2023-11-22T02:40:31;2.50;70.20
80279;DHT22;70683;52.492;13.416;2023-11-22T02:42:58;2.50;70.50
80279;DHT22;70683;52.492;13.416;2023-11-22T02:45:28;2.50;71.40
80279;DHT22;70683;52.492;13.416;2023-11-22T02:47:54;2.40;70.90
80279;DHT22;70683;52.492;13.416;2023-11-22T02:50:21;2.50;71.70
80279;DHT22;70683;52.492;13.416;2023-11-22T02:52:48;2.50;72.00
80279;DHT22;70683;52.492;13.416;2023-11-22T02:55:15;2.50;70.80
80279;DHT22;70683;52.492;13.416;2023-11-22T02:57:41;2.50;70.40
80279;DHT22;70683;52.492;13.416;2023-11-22T03:00:09;2.50;70.90
80279;DHT22;70683;52.492;13.416;2023-11-22T03:02:46;2.50;71.20
80279;DHT22;70683;52.492;13.416;2023-11-22T03:05:13;2.50;70.80
80279;DHT22;70683;52.492;13.416;2023-11-22T03:07:41;2.50;69.60
80279;DHT22;70683;52.492;13.416;2023-11-22T03:10:08;2.40;69.90
80279;DHT22;70683;52.492;13.416;2023-11-22T03:12:35;2.40;70.70
80279;DHT22;70683;52.492;13.416;2023-11-22T03:15:02;2.40;71.00
80279;DHT22;70683;52.492;13.416;2023-11-22T03:17:29;2.40;71.70
80279;DHT22;70683;52.492;13.416;2023-11-22T03:19:57;2.40;71.80
80279;DHT22;70683;52.492;13.416;2023-11-22T03:22:25;2.40;72.20
80279;DHT22;70683;52.492;13.416;2023-11-22T03:24:52;2.40;72.60
80279;DHT22;70683;52.492;13.416;2023-11-22T03:27:19;2.50;72.90
80279;DHT22;70683;52.492;13.416;2023-11-22T03:29:48;2.50;73.00
80279;DHT22;70683;52.492;13.416;2023-11-22T03:32:15;2.40;72.70
80279;DHT22;70683;52.492;13.416;2023-11-22T03:34:42;2.40;72.50
80279;DHT22;70683;52.492;13.416;2023-11-22T03:37:08;2.40;73.10
80279;DHT22;70683;52.492;13.416;2023-11-22T03:39:35;2.40;73.00
80279;DHT22;70683;52.492;13.416;2023-11-22T03:42:02;2.40;73.60
80279;DHT22;70683;52.492;13.416;2023-11-22T03:44:29;2.40;74.40
80279;DHT22;70683;52.492;13.416;2023-11-22T03:46:56;2.40;75.00
80279;DHT22;70683;52.492;13.416;2023-11-22T03:49:22;2.40;75.80
80279;DHT22;70683;52.492;13.416;2023-11-22T03:51:49;2.30;76.70
80279;DHT22;70683;52.492;13.416;2023-11-22T03:54:16;2.30;77.40
80279;DHT22;70683;52.492;13.416;2023-11-22T03:56:42;2.30;78.10
80279;DHT22;70683;52.492;13.416;2023-11-22T03:59:10;2.20;78.20
80279;DHT22;70683;52.492;13.416;2023-11-22T04:01:36;2.30;78.20
80279;DHT22;70683;52.492;13.416;2023-11-22T04:04:03;2.30;77.60
80279;DHT22;70683;52.492;13.416;2023-11-22T04:06:30;2.30;78.70
80279;DHT22;70683;52.492;13.416;2023-11-22T04:08:59;2.20;77.70
80279;DHT22;70683;52.492;13.416;2023-11-22T04:11:25;2.20;78.90
80279;DHT22;70683;52.492;13.416;2023-11-22T04:13:54;2.20;78.20
80279;DHT22;70683;52.492;13.416;2023-11-22T04:16:21;2.20;78.60
80279;DHT22;70683;52.492;13.416;2023-11-22T04:18:48;2.20;78.30
80279;DHT22;70683;52.492;13.416;2023-11-22T04:21:14;2.10;78.50
80279;DHT22;70683;52.492;13.416;2023-11-22T04:23:41;2.00;78.80
80279;DHT22;70683;52.492;13.416;2023-11-22T04:26:08;2.00;78.80
80279;DHT22;70683;52.492;13.416;2023-11-22T04:28:35;2.00;79.50
80279;DHT22;70683;52.492;13.416;2023-11-22T04:31:01;2.10;80.00
80279;DHT22;70683;52.492;13.416;2023-11-22T04:33:29;2.10;80.00
80279;DHT22;70683;52.492;13.416;2023-11-22T04:35:56;2.10;79.40
80279;DHT22;70683;52.492;13.416;2023-11-22T04:38:23;2.10;78.80
80279;DHT22;70683;52.492;13.416;2023-11-22T04:40:49;2.00;79.10
80279;DHT22;70683;52.492;13.416;2023-11-22T04:43:16;2.00;79.80
80279;DHT22;70683;52.492;13.416;2023-11-22T04:45:42;2.00;79.80
80279;DHT22;70683;52.492;13.416;2023-11-22T04:48:09;2.00;79.50
80279;DHT22;70683;52.492;13.416;2023-11-22T04:50:36;2.00;79.90
80279;DHT22;70683;52.492;13.416;2023-11-22T04:53:02;1.90;78.60
80279;DHT22;70683;52.492;13.416;2023-11-22T04:55:29;1.90;79.10
80279;DHT22;70683;52.492;13.416;2023-11-22T04:57:56;1.90;79.70
80279;DHT22;70683;52.492;13.416;2023-11-22T05:00:22;1.80;80.00
80279;DHT22;70683;52.492;13.416;2023-11-22T05:02:49;1.90;79.60
80279;DHT22;70683;52.492;13.416;2023-11-22T05:05:16;1.90;80.30
80279;DHT22;70683;52.492;13.416;2023-11-22T05:07:42;1.90;79.10
80279;DHT22;70683;52.492;13.416;2023-11-22T05:10:10;2.00;79.30
80279;DHT22;70683;52.492;13.416;2023-11-22T05:12:37;2.00;79.40
80279;DHT22;70683;52.492;13.416;2023-11-22T05:15:05;1.90;79.20
80279;DHT22;70683;52.492;13.416;2023-11-22T05:17:32;1.90;79.20
80279;DHT22;70683;52.492;13.416;2023-11-22T05:19:58;1.90;79.20
80279;DHT22;70683;52.492;13.416;2023-11-22T05:22:25;1.90;79.20
80279;DHT22;70683;52.492;13.416;2023-11-22T05:24:51;2.00;80.60
80279;DHT22;70683;52.492;13.416;2023-11-22T05:27:18;2.00;79.00
80279;DHT22;70683;52.492;13.416;2023-11-22T05:29:45;2.00;78.50
80279;DHT22;70683;52.492;13.416;2023-11-22T05:32:12;1.90;77.70
80279;DHT22;70683;52.492;13.416;2023-11-22T05:34:38;1.90;77.90
80279;DHT22;70683;52.492;13.416;2023-11-22T05:37:06;1.90;77.50
80279;DHT22;70683;52.492;13.416;2023-11-22T05:39:33;1.80;77.60
80279;DHT22;70683;52.492;13.416;2023-11-22T05:42:00;1.80;77.30
80279;DHT22;70683;52.492;13.416;2023-11-22T05:44:26;1.80;77.20
80279;DHT22;70683;52.492;13.416;2023-11-22T05:46:53;1.90;77.20
80279;DHT22;70683;52.492;13.416;2023-11-22T05:49:20;1.90;77.60
80279;DHT22;70683;52.492;13.416;2023-11-22T05:51:47;1.90;77.60
80279;DHT22;70683;52.492;13.416;2023-11-22T05:54:13;1.80;76.20
80279;DHT22;70683;52.492;13.416;2023-11-22T05:56:42;1.80;76.40
80279;DHT22;70683;52.492;13.416;2023-11-22T05:59:09;1.80;75.80
80279;DHT22;70683;52.492;13.416;2023-11-22T06:01:36;1.80;76.50
80279;DHT22;70683;52.492;13.416;2023-11-22T06:04:02;1.80;76.70
80279;DHT22;70683;52.492;13.416;2023-11-22T06:06:29;1.80;76.70
80279;DHT22;70683;52.492;13.416;2023-11-22T06:08:56;1.80;75.70
80279;DHT22;70683;52.492;13.416;2023-11-22T06:11:23;1.90;75.50
80279;DHT22;70683;52.492;13.416;2023-11-22T06:13:51;1.90;75.80
80279;DHT22;70683;52.492;13.416;2023-11-22T06:16:18;1.90;74.60
80279;DHT22;70683;52.492;13.416;2023-11-22T06:18:44;1.80;74.40
80279;DHT22;70683;52.492;13.416;2023-11-22T06:21:11;1.90;74.60
80279;DHT22;70683;52.492;13.416;2023-11-22T06:23:38;1.80;75.10
80279;DHT22;70683;52.492;13.416;2023-11-22T06:26:04;1.80;75.80
80279;DHT22;70683;52.492;13.416;2023-11-22T06:28:32;1.70;75.70
80279;DHT22;70683;52.492;13.416;2023-11-22T06:31:00;1.70;76.70
80279;DHT22;70683;52.492;13.416;2023-11-22T06:33:27;1.80;77.00
80279;DHT22;70683;52.492;13.416;2023-11-22T06:35:53;1.80;77.50
80279;DHT22;70683;52.492;13.416;2023-11-22T06:38:20;1.70;76.70
80279;DHT22;70683;52.492;13.416;2023-11-22T06:40:47;1.70;77.20
80279;DHT22;70683;52.492;13.416;2023-11-22T06:43:13;1.70;78.40
80279;DHT22;70683;52.492;13.416;2023-11-22T06:45:41;1.80;78.20
80279;DHT22;70683;52.492;13.416;2023-11-22T06:48:07;1.80;78.50
80279;DHT22;70683;52.492;13.416;2023-11-22T06:50:34;1.80;77.80
80279;DHT22;70683;52.492;13.416;2023-11-22T06:53:01;1.80;76.80
80279;DHT22;70683;52.492;13.416;2023-11-22T06:55:29;1.80;77.70
80279;DHT22;70683;52.492;13.416;2023-11-22T06:57:57;1.80;76.90
80279;DHT22;70683;52.492;13.416;2023-11-22T07:00:23;1.80;77.80
80279;DHT22;70683;52.492;13.416;2023-11-22T07:02:50;1.80;77.60
80279;DHT22;70683;52.492;13.416;2023-11-22T07:05:16;1.80;78.20
80279;DHT22;70683;52.492;13.416;2023-11-22T07:07:44;1.80;77.70
80279;DHT22;70683;52.492;13.416;2023-11-22T07:10:12;1.80;78.00
80279;DHT22;70683;52.492;13.416;2023-11-22T07:12:39;1.80;78.00
80279;DHT22;70683;52.492;13.416;2023-11-22T07:15:09;1.80;78.40
80279;DHT22;70683;52.492;13.416;2023-11-22T07:17:36;1.90;77.80
80279;DHT22;70683;52.492;13.416;2023-11-22T07:20:03;1.90;77.60
80279;DHT22;70683;52.492;13.416;2023-11-22T07:22:32;1.80;76.90
80279;DHT22;70683;52.492;13.416;2023-11-22T07:24:59;1.80;78.50
80279;DHT22;70683;52.492;13.416;2023-11-22T07:27:28;1.90;78.30
80279;DHT22;70683;52.492;13.416;2023-11-22T07:29:54;1.90;76.40
80279;DHT22;70683;52.492;13.416;2023-11-22T07:32:22;1.90;75.90
80279;DHT22;70683;52.492;13.416;2023-11-22T07:34:48;1.80;75.40
80279;DHT22;70683;52.492;13.416;2023-11-22T07:37:15;1.80;76.00
80279;DHT22;70683;52.492;13.416;2023-11-22T07:39:44;1.80;76.80
80279;DHT22;70683;52.492;13.416;2023-11-22T07:42:10;1.80;77.70
80279;DHT22;70683;52.492;13.416;2023-11-22T07:44:37;1.80;78.20
80279;DHT22;70683;52.492;13.416;2023-11-22T07:47:04;1.90;78.10
80279;DHT22;70683;52.492;13.416;2023-11-22T07:49:33;1.90;77.60
80279;DHT22;70683;52.492;13.416;2023-11-22T07:52:04;1.90;77.60
80279;DHT22;70683;52.492;13.416;2023-11-22T07:54:31;1.80;77.10
80279;DHT22;70683;52.492;13.416;2023-11-22T07:56:58;1.80;78.00
80279;DHT22;70683;52.492;13.416;2023-11-22T07:59:24;1.80;78.40
80279;DHT22;70683;52.492;13.416;2023-11-22T08:01:51;1.90;78.20
80279;DHT22;70683;52.492;13.416;2023-11-22T08:04:19;1.90;78.40
80279;DHT22;70683;52.492;13.416;2023-11-22T08:06:46;2.00;77.70
80279;DHT22;70683;52.492;13.416;2023-11-22T08:09:14;1.90;76.90
80279;DHT22;70683;52.492;13.416;2023-11-22T08:11:42;2.10;76.40
80279;DHT22;70683;52.492;13.416;2023-11-22T08:14:09;2.00;76.60
80279;DHT22;70683;52.492;13.416;2023-11-22T08:16:35;2.00;75.90
80279;DHT22;70683;52.492;13.416;2023-11-22T08:19:04;2.00;76.20
80279;DHT22;70683;52.492;13.416;2023-11-22T08:21:31;2.20;74.80
80279;DHT22;70683;52.492;13.416;2023-11-22T08:23:59;2.10;73.90
80279;DHT22;70683;52.492;13.416;2023-11-22T08:26:26;2.10;74.40
80279;DHT22;70683;52.492;13.416;2023-11-22T08:28:53;2.00;74.40
80279;DHT22;70683;52.492;13.416;2023-11-22T08:31:20;2.10;74.40
80279;DHT22;70683;52.492;13.416;2023-11-22T08:33:46;2.10;74.50
80279;DHT22;70683;52.492;13.416;2023-11-22T08:36:13;2.10;74.50
80279;DHT22;70683;52.492;13.416;2023-11-22T08:38:40;2.20;73.80
80279;DHT22;70683;52.492;13.416;2023-11-22T08:41:09;2.10;73.40
80279;DHT22;70683;52.492;13.416;2023-11-22T08:43:40;2.10;73.30
80279;DHT22;70683;52.492;13.416;2023-11-22T08:46:07;2.20;73.20
80279;DHT22;70683;52.492;13.416;2023-11-22T08:48:34;2.30;72.50
80279;DHT22;70683;52.492;13.416;2023-11-22T08:51:01;2.30;72.30
80279;DHT22;70683;52.492;13.416;2023-11-22T08:53:29;2.40;69.90
80279;DHT22;70683;52.492;13.416;2023-11-22T08:55:56;2.50;68.30
80279;DHT22;70683;52.492;13.416;2023-11-22T08:58:23;2.50;68.50
80279;DHT22;70683;52.492;13.416;2023-11-22T09:00:50;2.30;69.20
80279;DHT22;70683;52.492;13.416;2023-11-22T09:03:17;2.30;70.00
80279;DHT22;70683;52.492;13.416;2023-11-22T09:05:43;2.20;70.10
80279;DHT22;70683;52.492;13.416;2023-11-22T09:08:12;2.30;69.80
80279;DHT22;70683;52.492;13.416;2023-11-22T09:10:42;2.40;70.50
80279;DHT22;70683;52.492;13.416;2023-11-22T09:13:10;2.50;69.70
80279;DHT22;70683;52.492;13.416;2023-11-22T09:15:38;2.50;68.90
80279;DHT22;70683;52.492;13.416;2023-11-22T09:18:07;2.60;69.00
80279;DHT22;70683;52.492;13.416;2023-11-22T09:20:34;2.60;70.10
80279;DHT22;70683;52.492;13.416;2023-11-22T09:23:00;2.60;70.30
80279;DHT22;70683;52.492;13.416;2023-11-22T09:25:27;2.60;70.00
80279;DHT22;70683;52.492;13.416;2023-11-22T09:27:55;2.70;69.30
80279;DHT22;70683;52.492;13.416;2023-11-22T09:30:28;2.70;68.60
80279;DHT22;70683;52.492;13.416;2023-11-22T09:33:04;2.70;68.70
80279;DHT22;70683;52.492;13.416;2023-11-22T09:35:32;2.70;68.00
80279;DHT22;70683;52.492;13.416;2023-11-22T09:38:00;2.60;68.30
80279;DHT22;70683;52.492;13.416;2023-11-22T09:40:28;2.80;68.60
80279;DHT22;70683;52.492;13.416;2023-11-22T09:42:58;2.90;68.50
80279;DHT22;70683;52.492;13.416;2023-11-22T09:45:28;3.00;67.00
80279;DHT22;70683;52.492;13.416;2023-11-22T09:47:57;3.10;65.60
80279;DHT22;70683;52.492;13.416;2023-11-22T09:50:32;3.10;66.30
80279;DHT22;70683;52.492;13.416;2023-11-22T09:53:00;3.00;66.40
80279;DHT22;70683;52.492;13.416;2023-11-22T09:55:29;3.10;65.70
80279;DHT22;70683;52.492;13.416;2023-11-22T09:57:58;3.10;66.20
80279;DHT22;70683;52.492;13.416;2023-11-22T10:00:28;3.00;66.00
80279;DHT22;70683;52.492;13.416;2023-11-22T10:02:57;3.00;66.60
80279;DHT22;70683;52.492;13.416;2023-11-22T10:05:24;3.00;66.70
80279;DHT22;70683;52.492;13.416;2023-11-22T10:07:54;3.30;64.30
80279;DHT22;70683;52.492;13.416;2023-11-22T10:10:22;3.30;64.00
80279;DHT22;70683;52.492;13.416;2023-11-22T10:12:49;3.20;64.50
80279;DHT22;70683;52.492;13.416;2023-11-22T10:15:16;3.10;65.50
80279;DHT22;70683;52.492;13.416;2023-11-22T10:17:54;3.20;65.50
80279;DHT22;70683;52.492;13.416;2023-11-22T10:20:24;3.30;65.60
80279;DHT22;70683;52.492;13.416;2023-11-22T10:22:52;3.30;65.50
80279;DHT22;70683;52.492;13.416;2023-11-22T10:25:20;3.40;64.50
80279;DHT22;70683;52.492;13.416;2023-11-22T10:27:48;3.50;63.80
80279;DHT22;70683;52.492;13.416;2023-11-22T10:30:18;3.50;64.00
80279;DHT22;70683;52.492;13.416;2023-11-22T10:32:45;3.60;63.50
80279;DHT22;70683;52.492;13.416;2023-11-22T10:35:12;3.60;63.00
80279;DHT22;70683;52.492;13.416;2023-11-22T10:37:42;3.60;63.00
80279;DHT22;70683;52.492;13.416;2023-11-22T10:40:12;3.60;63.60
80279;DHT22;70683;52.492;13.416;2023-11-22T10:42:41;3.60;64.00
80279;DHT22;70683;52.492;13.416;2023-11-22T10:45:09;3.70;62.60
80279;DHT22;70683;52.492;13.416;2023-11-22T10:47:38;3.80;62.00
80279;DHT22;70683;52.492;13.416;2023-11-22T10:50:06;3.70;62.70
80279;DHT22;70683;52.492;13.416;2023-11-22T10:52:36;3.80;63.10
80279;DHT22;70683;52.492;13.416;2023-11-22T10:55:04;3.80;62.90
80279;DHT22;70683;52.492;13.416;2023-11-22T10:57:36;4.00;62.40
80279;DHT22;70683;52.492;13.416;2023-11-22T11:00:03;4.00;61.90
80279;DHT22;70683;52.492;13.416;2023-11-22T11:02:40;4.00;62.30
80279;DHT22;70683;52.492;13.416;2023-11-22T11:05:15;4.00;62.60
80279;DHT22;70683;52.492;13.416;2023-11-22T11:07:45;3.90;62.60
80279;DHT22;70683;52.492;13.416;2023-11-22T11:10:13;4.00;63.40
80279;DHT22;70683;52.492;13.416;2023-11-22T11:12:40;4.10;63.80
80279;DHT22;70683;52.492;13.416;2023-11-22T11:15:08;4.20;64.00
80279;DHT22;70683;52.492;13.416;2023-11-22T11:17:35;4.20;63.50
80279;DHT22;70683;52.492;13.416;2023-11-22T11:20:04;4.20;63.40
80279;DHT22;70683;52.492;13.416;2023-11-22T11:22:32;4.20;63.40
80279;DHT22;70683;52.492;13.416;2023-11-22T11:25:01;4.40;63.20
80279;DHT22;70683;52.492;13.416;2023-11-22T11:27:33;4.50;61.90
80279;DHT22;70683;52.492;13.416;2023-11-22T11:30:17;4.50;61.00
80279;DHT22;70683;52.492;13.416;2023-11-22T11:32:31;4.40;62.20
80279;DHT22;70683;52.492;13.416;2023-11-22T11:35:00;4.50;63.00
80279;DHT22;70683;52.492;13.416;2023-11-22T11:37:29;4.50;61.60
80279;DHT22;70683;52.492;13.416;2023-11-22T11:39:58;4.60;60.00
80279;DHT22;70683;52.492;13.416;2023-11-22T11:42:24;4.60;60.40
80279;DHT22;70683;52.492;13.416;2023-11-22T11:45:07;4.60;61.70
80279;DHT22;70683;52.492;13.416;2023-11-22T11:47:36;4.60;60.80
80279;DHT22;70683;52.492;13.416;2023-11-22T11:50:04;4.60;59.90
80279;DHT22;70683;52.492;13.416;2023-11-22T11:52:30;4.50;59.40
80279;DHT22;70683;52.492;13.416;2023-11-22T11:54:58;4.40;60.10
80279;DHT22;70683;52.492;13.416;2023-11-22T11:57:25;4.50;59.90
80279;DHT22;70683;52.492;13.416;2023-11-22T11:59:52;4.60;60.20
80279;DHT22;70683;52.492;13.416;2023-11-22T12:02:21;4.50;59.90
80279;DHT22;70683;52.492;13.416;2023-11-22T12:04:48;4.60;60.10
80279;DHT22;70683;52.492;13.416;2023-11-22T12:07:15;4.70;61.20
80279;DHT22;70683;52.492;13.416;2023-11-22T12:09:42;4.70;60.40
80279;DHT22;70683;52.492;13.416;2023-11-22T12:12:09;4.70;61.30
80279;DHT22;70683;52.492;13.416;2023-11-22T12:14:37;4.70;62.30
80279;DHT22;70683;52.492;13.416;2023-11-22T12:17:04;4.80;61.50
80279;DHT22;70683;52.492;13.416;2023-11-22T12:19:32;4.90;60.90
80279;DHT22;70683;52.492;13.416;2023-11-22T12:21:59;4.90;61.40
80279;DHT22;70683;52.492;13.416;2023-11-22T12:24:26;4.90;60.10
80279;DHT22;70683;52.492;13.416;2023-11-22T12:26:53;4.90;60.90
80279;DHT22;70683;52.492;13.416;2023-11-22T12:29:23;4.90;61.00
80279;DHT22;70683;52.492;13.416;2023-11-22T12:31:52;5.00;60.70
80279;DHT22;70683;52.492;13.416;2023-11-22T12:34:22;5.10;58.90
80279;DHT22;70683;52.492;13.416;2023-11-22T12:36:52;5.10;59.20
80279;DHT22;70683;52.492;13.416;2023-11-22T12:39:20;5.10;58.70
80279;DHT22;70683;52.492;13.416;2023-11-22T12:41:50;5.10;59.10
80279;DHT22;70683;52.492;13.416;2023-11-22T12:44:17;5.20;59.70
80279;DHT22;70683;52.492;13.416;2023-11-22T12:46:49;5.10;59.60
80279;DHT22;70683;52.492;13.416;2023-11-22T12:49:18;5.20;61.90
80279;DHT22;70683;52.492;13.416;2023-11-22T12:51:49;5.30;64.00
80279;DHT22;70683;52.492;13.416;2023-11-22T12:54:16;5.40;62.60
80279;DHT22;70683;52.492;13.416;2023-11-22T12:56:45;5.50;61.80
80279;DHT22;70683;52.492;13.416;2023-11-22T12:59:12;5.60;61.80
80279;DHT22;70683;52.492;13.416;2023-11-22T13:01:39;5.70;61.60
80279;DHT22;70683;52.492;13.416;2023-11-22T13:04:05;5.80;61.00
80279;DHT22;70683;52.492;13.416;2023-11-22T13:06:33;5.80;60.40
80279;DHT22;70683;52.492;13.416;2023-11-22T13:08:59;5.80;60.60
80279;DHT22;70683;52.492;13.416;2023-11-22T13:11:26;5.80;60.60
80279;DHT22;70683;52.492;13.416;2023-11-22T13:13:52;6.00;60.20
80279;DHT22;70683;52.492;13.416;2023-11-22T13:16:19;6.00;59.70
80279;DHT22;70683;52.492;13.416;2023-11-22T13:18:46;6.00;60.00
80279;DHT22;70683;52.492;13.416;2023-11-22T13:21:14;6.00;59.50
80279;DHT22;70683;52.492;13.416;2023-11-22T13:23:41;6.00;59.40
80279;DHT22;70683;52.492;13.416;2023-11-22T13:26:08;5.90;59.80
80279;DHT22;70683;52.492;13.416;2023-11-22T13:28:36;6.00;59.90
80279;DHT22;70683;52.492;13.416;2023-11-22T13:31:03;5.90;59.90
80279;DHT22;70683;52.492;13.416;2023-11-22T13:33:30;6.00;59.40
80279;DHT22;70683;52.492;13.416;2023-11-22T13:35:57;5.90;58.00
80279;DHT22;70683;52.492;13.416;2023-11-22T13:38:24;5.90;58.00
80279;DHT22;70683;52.492;13.416;2023-11-22T13:40:50;5.80;58.80
80279;DHT22;70683;52.492;13.416;2023-11-22T13:43:18;5.70;58.50
80279;DHT22;70683;52.492;13.416;2023-11-22T13:45:46;5.80;58.50
80279;DHT22;70683;52.492;13.416;2023-11-22T13:48:12;5.80;58.10
80279;DHT22;70683;52.492;13.416;2023-11-22T13:50:39;5.70;58.10
80279;DHT22;70683;52.492;13.416;2023-11-22T13:53:06;5.70;57.80
80279;DHT22;70683;52.492;13.416;2023-11-22T13:55:35;5.60;57.60
80279;DHT22;70683;52.492;13.416;2023-11-22T13:58:03;5.70;56.90
80279;DHT22;70683;52.492;13.416;2023-11-22T14:00:31;5.60;57.70
80279;DHT22;70683;52.492;13.416;2023-11-22T14:03:02;5.50;58.00
80279;DHT22;70683;52.492;13.416;2023-11-22T14:05:33;5.40;58.50
80279;DHT22;70683;52.492;13.416;2023-11-22T14:08:02;5.40;58.90
80279;DHT22;70683;52.492;13.416;2023-11-22T14:10:30;5.40;59.00
80279;DHT22;70683;52.492;13.416;2023-11-22T14:12:57;5.40;59.30
80279;DHT22;70683;52.492;13.416;2023-11-22T14:15:27;5.30;59.70
80279;DHT22;70683;52.492;13.416;2023-11-22T14:17:55;5.20;60.30
80279;DHT22;70683;52.492;13.416;2023-11-22T14:20:21;5.30;60.30
80279;DHT22;70683;52.492;13.416;2023-11-22T14:22:50;5.30;61.00
80279;DHT22;70683;52.492;13.416;2023-11-22T14:25:16;5.30;61.70
80279;DHT22;70683;52.492;13.416;2023-11-22T14:27:45;5.30;60.50
80279;DHT22;70683;52.492;13.416;2023-11-22T14:30:13;5.20;60.60
80279;DHT22;70683;52.492;13.416;2023-11-22T14:32:43;5.20;61.50
80279;DHT22;70683;52.492;13.416;2023-11-22T14:35:10;5.10;62.10
80279;DHT22;70683;52.492;13.416;2023-11-22T14:37:38;5.10;62.30
80279;DHT22;70683;52.492;13.416;2023-11-22T14:40:07;5.10;63.60
80279;DHT22;70683;52.492;13.416;2023-11-22T14:42:40;5.00;63.40
80279;DHT22;70683;52.492;13.416;2023-11-22T14:45:08;5.00;63.10
80279;DHT22;70683;52.492;13.416;2023-11-22T14:47:38;5.00;62.60
80279;DHT22;70683;52.492;13.416;2023-11-22T14:50:07;5.00;63.20
80279;DHT22;70683;52.492;13.416;2023-11-22T14:52:36;4.90;63.10
80279;DHT22;70683;52.492;13.416;2023-11-22T14:55:03;4.90;63.60
80279;DHT22;70683;52.492;13.416;2023-11-22T14:57:31;4.90;63.50
80279;DHT22;70683;52.492;13.416;2023-11-22T14:59:58;4.90;63.70
80279;DHT22;70683;52.492;13.416;2023-11-22T15:02:25;4.90;63.50
80279;DHT22;70683;52.492;13.416;2023-11-22T15:04:52;4.80;63.60
80279;DHT22;70683;52.492;13.416;2023-11-22T15:07:19;4.80;63.90
80279;DHT22;70683;52.492;13.416;2023-11-22T15:09:45;4.70;64.00
80279;DHT22;70683;52.492;13.416;2023-11-22T15:12:12;4.60;64.60
80279;DHT22;70683;52.492;13.416;2023-11-22T15:14:39;4.60;64.40
80279;DHT22;70683;52.492;13.416;2023-11-22T15:17:06;4.60;64.40
80279;DHT22;70683;52.492;13.416;2023-11-22T15:19:33;4.50;65.40
80279;DHT22;70683;52.492;13.416;2023-11-22T15:22:01;4.50;66.30
80279;DHT22;70683;52.492;13.416;2023-11-22T15:24:29;4.50;65.90
80279;DHT22;70683;52.492;13.416;2023-11-22T15:26:57;4.50;66.00
80279;DHT22;70683;52.492;13.416;2023-11-22T15:29:24;4.50;66.00
80279;DHT22;70683;52.492;13.416;2023-11-22T15:31:52;4.40;66.30